Time;durP1;ratioP1;P1;durP2;ratioP2;P2;SDS_P1;SDS_P2;PMS_P1;PMS_P2;Temp;Humidity;BMP_temperature;BMP_pressure;BME280_temperature;BME280_humidity;BME280_pressure;Samples;Min_cycle;Max_cycle;Signal;HPM_P1;HPM_P2
2022/08/30 00:01:27;;;;;;;4.63;2.55;;;19.40;83.80;;;;;;5048470;28;20049;-81
2022/08/30 00:03:54;;;;;;;8.63;2.45;;;19.30;84.00;;;;;;5040904;28;20018;-81
2022/08/30 00:06:22;;;;;;;3.53;2.35;;;19.20;84.20;;;;;;5038177;28;20022;-82
2022/08/30 00:08:48;;;;;;;5.45;2.42;;;19.20;84.30;;;;;;5042403;28;20006;-81
2022/08/30 00:11:17;;;;;;;6.45;2.78;;;19.10;84.50;;;;;;5050181;28;20036;-83
2022/08/30 00:13:46;;;;;;;6.05;2.35;;;19.00;84.90;;;;;;5043086;28;20080;-81
2022/08/30 00:16:12;;;;;;;7.50;2.90;;;19.00;84.60;;;;;;5041473;28;20022;-81
2022/08/30 00:18:39;;;;;;;5.78;2.67;;;19.00;84.60;;;;;;5042455;28;20043;-81
2022/08/30 00:21:06;;;;;;;5.85;2.60;;;19.00;84.90;;;;;;5031072;28;20022;-81
2022/08/30 00:23:37;;;;;;;6.57;1.80;;;19.00;84.90;;;;;;5039152;28;20100;-81
2022/08/30 00:26:05;;;;;;;5.68;2.95;;;19.00;85.00;;;;;;5040864;28;20418;-81
2022/08/30 00:28:32;;;;;;;7.15;2.30;;;18.90;85.70;;;;;;5035156;28;20029;-80
2022/08/30 00:31:03;;;;;;;5.75;2.72;;;18.80;85.70;;;;;;5038651;28;20037;-81
2022/08/30 00:33:29;;;;;;;3.38;2.35;;;18.80;85.60;;;;;;5036485;28;20026;-81
2022/08/30 00:35:55;;;;;;;7.85;2.40;;;18.70;85.70;;;;;;5043971;28;20033;-81
2022/08/30 00:38:22;;;;;;;8.32;2.53;;;18.80;85.70;;;;;;5037479;28;20029;-81
2022/08/30 00:40:52;;;;;;;6.03;2.47;;;18.80;85.60;;;;;;5045210;28;20018;-81
2022/08/30 00:43:25;;;;;;;10.80;2.65;;;18.80;85.60;;;;;;5024791;28;20514;-81
2022/08/30 00:45:51;;;;;;;4.47;2.10;;;18.70;85.60;;;;;;5037460;28;20056;-81
2022/08/30 00:48:18;;;;;;;10.20;2.70;;;18.80;85.70;;;;;;5041107;28;20057;-81
2022/08/30 00:50:59;;;;;;;3.95;2.95;;;18.70;85.90;;;;;;5036676;28;20029;-81
2022/08/30 00:53:29;;;;;;;4.60;2.50;;;18.80;85.90;;;;;;5038242;28;20033;-81
2022/08/30 00:55:56;;;;;;;5.65;2.42;;;18.80;85.70;;;;;;5039635;28;20033;-81
2022/08/30 00:58:28;;;;;;;13.05;2.70;;;18.80;85.90;;;;;;5047979;28;20021;-81
2022/08/30 01:00:59;;;;;;;4.75;2.45;;;18.80;86.00;;;;;;5041062;28;20026;-81
2022/08/30 01:03:26;;;;;;;5.35;2.70;;;18.70;86.20;;;;;;5036400;28;20375;-81
2022/08/30 01:05:52;;;;;;;5.45;2.72;;;18.70;86.40;;;;;;5056587;28;20452;-80
2022/08/30 01:08:21;;;;;;;9.70;2.83;;;18.60;86.80;;;;;;5045201;28;20470;-80
2022/08/30 01:10:49;;;;;;;6.30;2.42;;;18.60;87.00;;;;;;5044894;28;20041;-80
2022/08/30 01:13:20;;;;;;;3.53;2.33;;;18.60;86.90;;;;;;5038907;28;20028;-81
2022/08/30 01:15:48;;;;;;;6.13;2.17;;;18.60;87.20;;;;;;5038800;28;20053;-80
2022/08/30 01:18:17;;;;;;;7.32;2.65;;;18.60;87.00;;;;;;5034503;28;20032;-81
2022/08/30 01:20:59;;;;;;;6.55;2.83;;;18.60;86.80;;;;;;5041480;28;20376;-80
2022/08/30 01:23:26;;;;;;;4.07;2.50;;;18.70;86.80;;;;;;5041228;28;20464;-81
2022/08/30 01:25:53;;;;;;;5.10;2.25;;;18.70;87.10;;;;;;5041226;28;20033;-81
2022/08/30 01:28:24;;;;;;;4.45;2.35;;;18.80;87.20;;;;;;5042241;28;20485;-81
2022/08/30 01:30:51;;;;;;;5.53;2.15;;;18.80;86.80;;;;;;5042038;28;20030;-80
2022/08/30 01:33:20;;;;;;;4.75;2.85;;;18.70;86.80;;;;;;5039669;28;20036;-81
2022/08/30 01:36:03;;;;;;;4.00;2.28;;;18.70;86.90;;;;;;5049221;28;20033;-81
2022/08/30 01:38:53;;;;;;;7.00;3.10;;;18.80;86.60;;;;;;5060694;28;20048;-80
2022/08/30 01:41:24;;;;;;;4.10;2.22;;;18.80;86.80;;;;;;5060693;28;20029;-80
2022/08/30 01:43:53;;;;;;;4.05;2.50;;;18.80;86.60;;;;;;5045877;28;20049;-81
2022/08/30 01:46:23;;;;;;;4.65;2.28;;;18.90;86.50;;;;;;5044916;28;20034;-80
2022/08/30 01:48:49;;;;;;;4.43;2.80;;;18.80;87.00;;;;;;5030954;28;20061;-81
2022/08/30 01:51:16;;;;;;;4.25;2.53;;;18.90;87.00;;;;;;5044218;28;20040;-80
2022/08/30 01:53:44;;;;;;;10.00;3.42;;;18.90;86.80;;;;;;5047220;28;20140;-80
2022/08/30 01:56:11;;;;;;;4.88;2.83;;;18.80;86.70;;;;;;5047126;28;20075;-80
2022/08/30 01:58:38;;;;;;;4.65;2.75;;;18.70;87.00;;;;;;5047578;28;20025;-80
2022/08/30 02:01:11;;;;;;;8.18;2.95;;;18.70;87.00;;;;;;5050050;28;20085;-81
2022/08/30 02:03:42;;;;;;;6.00;2.70;;;18.70;87.20;;;;;;5049722;28;20053;-80
2022/08/30 02:06:11;;;;;;;7.00;2.70;;;18.60;87.10;;;;;;5047809;28;20026;-80
2022/08/30 02:08:41;;;;;;;4.85;2.58;;;18.60;87.00;;;;;;5061415;28;20017;-81
2022/08/30 02:11:08;;;;;;;5.82;3.20;;;18.60;87.30;;;;;;5042061;28;20057;-81
2022/08/30 02:13:36;;;;;;;7.57;2.85;;;18.60;87.50;;;;;;5045432;28;20021;-81
2022/08/30 02:16:06;;;;;;;5.88;2.78;;;18.60;88.00;;;;;;5046000;28;20122;-81
2022/08/30 02:18:33;;;;;;;7.60;4.57;;;18.50;88.40;;;;;;5052348;28;20010;-81
2022/08/30 02:20:59;;;;;;;3.75;2.03;;;18.50;88.10;;;;;;5057682;28;20025;-81
2022/08/30 02:23:25;;;;;;;5.78;2.30;;;18.40;88.20;;;;;;5047033;28;20522;-81
2022/08/30 02:25:51;;;;;;;5.40;2.53;;;18.40;88.20;;;;;;5042384;28;20119;-81
2022/08/30 02:28:19;;;;;;;7.43;2.75;;;18.50;88.60;;;;;;5046223;28;20049;-81
2022/08/30 02:30:46;;;;;;;4.13;2.55;;;18.50;88.10;;;;;;5044717;28;20395;-80
2022/08/30 02:33:12;;;;;;;5.20;2.55;;;18.40;88.60;;;;;;5043703;28;20113;-81
2022/08/30 02:35:38;;;;;;;4.65;2.70;;;18.40;88.80;;;;;;5040239;28;20029;-81
2022/08/30 02:38:04;;;;;;;5.43;2.72;;;18.40;88.50;;;;;;5040507;28;20172;-80
2022/08/30 02:40:30;;;;;;;8.38;2.50;;;18.20;88.60;;;;;;5048363;28;20029;-80
2022/08/30 02:42:56;;;;;;;7.47;2.63;;;18.30;88.30;;;;;;5041908;28;20507;-80
2022/08/30 02:45:23;;;;;;;6.35;3.15;;;18.30;88.30;;;;;;5044265;28;20037;-80
2022/08/30 02:47:48;;;;;;;4.82;2.60;;;18.30;88.40;;;;;;5017761;28;20473;-81
2022/08/30 02:50:15;;;;;;;4.55;2.60;;;18.40;88.30;;;;;;5049836;28;20063;-81
2022/08/30 02:52:41;;;;;;;5.82;2.60;;;18.40;88.20;;;;;;5040349;28;20028;-80
2022/08/30 02:55:07;;;;;;;5.43;2.70;;;18.40;88.20;;;;;;5047247;28;20455;-81
2022/08/30 02:57:33;;;;;;;4.05;3.03;;;18.40;88.30;;;;;;5042792;28;20558;-80
2022/08/30 03:00:00;;;;;;;6.60;2.58;;;18.40;88.40;;;;;;5046504;28;20029;-80
2022/08/30 03:02:26;;;;;;;7.22;2.75;;;18.40;88.60;;;;;;5041253;28;20038;-81
2022/08/30 03:04:52;;;;;;;6.13;2.95;;;18.50;88.30;;;;;;5044396;28;20463;-80
2022/08/30 03:07:18;;;;;;;5.57;2.53;;;18.50;88.70;;;;;;5048146;28;20416;-80
2022/08/30 03:09:44;;;;;;;6.43;2.60;;;18.50;88.30;;;;;;5047504;28;20063;-80
2022/08/30 03:12:11;;;;;;;4.50;2.30;;;18.50;88.90;;;;;;5036997;28;20040;-80
2022/08/30 03:14:38;;;;;;;4.43;2.28;;;18.40;88.80;;;;;;5038980;28;20029;-80
2022/08/30 03:17:06;;;;;;;4.40;2.30;;;18.40;88.80;;;;;;5038212;28;20033;-80
2022/08/30 03:19:33;;;;;;;9.18;2.55;;;18.40;89.00;;;;;;5037906;28;20071;-80
2022/08/30 03:21:59;;;;;;;8.68;2.47;;;18.40;89.40;;;;;;5037654;28;20033;-80
2022/08/30 03:24:25;;;;;;;7.15;2.67;;;18.30;89.40;;;;;;5048711;28;20460;-80
2022/08/30 03:26:51;;;;;;;5.72;3.13;;;18.30;89.50;;;;;;5043385;28;20025;-80
2022/08/30 03:29:17;;;;;;;6.18;2.80;;;18.20;89.80;;;;;;5052576;28;20111;-80
2022/08/30 03:31:43;;;;;;;5.25;2.90;;;18.20;89.80;;;;;;5047077;28;20030;-80
2022/08/30 03:34:09;;;;;;;5.80;2.92;;;18.20;89.70;;;;;;5047265;28;20497;-80
2022/08/30 03:36:37;;;;;;;6.97;2.67;;;18.10;89.80;;;;;;5037308;28;20056;-80
2022/08/30 03:39:07;;;;;;;6.03;3.05;;;18.10;89.80;;;;;;5044615;28;20041;-80
2022/08/30 03:41:33;;;;;;;4.20;2.35;;;18.00;90.00;;;;;;5050252;28;20041;-81
2022/08/30 03:44:00;;;;;;;6.72;2.42;;;18.10;90.00;;;;;;5058913;28;20039;-80
2022/08/30 03:46:26;;;;;;;8.48;2.63;;;18.00;90.20;;;;;;5044867;28;20032;-80
2022/08/30 03:48:54;;;;;;;9.15;3.00;;;18.00;90.20;;;;;;5029944;28;20041;-82
2022/08/30 03:51:24;;;;;;;6.47;2.70;;;18.00;90.20;;;;;;5043984;28;20052;-80
2022/08/30 03:53:50;;;;;;;4.75;2.63;;;18.00;90.10;;;;;;5035313;28;20045;-80
2022/08/30 03:56:16;;;;;;;5.97;2.67;;;18.00;90.30;;;;;;5038549;28;20025;-80
2022/08/30 03:58:43;;;;;;;9.32;3.03;;;17.80;90.70;;;;;;5042813;28;20032;-81
2022/08/30 04:01:08;;;;;;;5.10;2.85;;;17.80;90.80;;;;;;5042332;28;20017;-80
2022/08/30 04:03:34;;;;;;;4.65;3.00;;;17.70;90.80;;;;;;5039761;28;20093;-81
2022/08/30 04:06:00;;;;;;;6.55;3.25;;;17.70;90.80;;;;;;5056273;28;20455;-80
2022/08/30 04:08:26;;;;;;;6.85;3.47;;;17.70;90.70;;;;;;5039851;28;20042;-81
2022/08/30 04:10:54;;;;;;;6.13;2.92;;;17.70;90.80;;;;;;5041657;28;20036;-81
2022/08/30 04:13:21;;;;;;;7.43;3.05;;;17.70;90.80;;;;;;5041459;28;20045;-81
2022/08/30 04:15:47;;;;;;;6.40;3.17;;;17.70;90.80;;;;;;5053899;28;20034;-80
2022/08/30 04:18:13;;;;;;;3.90;2.90;;;17.70;90.60;;;;;;5048579;28;20017;-80
2022/08/30 04:20:42;;;;;;;6.25;2.55;;;17.70;90.60;;;;;;5042774;28;20026;-80
2022/08/30 04:23:08;;;;;;;6.40;3.25;;;17.70;90.90;;;;;;5038574;28;20506;-80
2022/08/30 04:25:35;;;;;;;8.32;3.22;;;17.60;90.90;;;;;;5052579;28;20112;-80
2022/08/30 04:28:02;;;;;;;7.82;2.95;;;17.50;91.10;;;;;;5044335;28;20034;-80
2022/08/30 04:30:29;;;;;;;8.13;2.67;;;17.50;91.10;;;;;;5039167;28;20036;-80
2022/08/30 04:32:55;;;;;;;10.43;3.20;;;17.50;91.10;;;;;;5046457;28;20010;-80
2022/08/30 04:35:21;;;;;;;5.97;3.05;;;17.50;91.30;;;;;;5046083;28;20049;-80
2022/08/30 04:37:47;;;;;;;6.28;3.00;;;17.50;91.20;;;;;;5047862;28;20037;-81
2022/08/30 04:40:13;;;;;;;7.22;3.17;;;17.50;91.20;;;;;;5035913;28;20029;-81
2022/08/30 04:42:42;;;;;;;6.43;3.28;;;17.40;91.40;;;;;;5038729;28;20026;-81
2022/08/30 04:45:11;;;;;;;5.07;2.95;;;17.40;91.30;;;;;;5037619;28;20026;-80
2022/08/30 04:47:38;;;;;;;4.57;2.63;;;17.40;91.20;;;;;;5044519;28;20034;-80
2022/08/30 04:50:10;;;;;;;5.75;2.97;;;17.40;91.20;;;;;;5047361;28;20084;-80
2022/08/30 04:52:36;;;;;;;8.85;2.53;;;17.50;91.30;;;;;;5034548;28;20581;-81
2022/08/30 04:55:04;;;;;;;6.40;2.78;;;17.40;91.30;;;;;;5034570;28;20029;-80
2022/08/30 04:57:30;;;;;;;9.23;3.05;;;17.40;91.40;;;;;;5042148;28;20030;-80
2022/08/30 04:59:56;;;;;;;5.10;2.47;;;17.40;91.40;;;;;;5048050;28;20113;-80
2022/08/30 05:02:22;;;;;;;5.60;2.90;;;17.40;91.40;;;;;;5037234;28;20033;-81
2022/08/30 05:07:33;;;;;;;6.28;2.75;;;17.40;91.60;;;;;;5044174;28;20036;-80
2022/08/30 05:09:59;;;;;;;5.38;2.60;;;17.40;91.50;;;;;;5050666;28;20033;-81
2022/08/30 05:12:25;;;;;;;11.05;2.80;;;17.40;91.40;;;;;;5043094;28;20505;-81
2022/08/30 05:14:51;;;;;;;6.53;2.80;;;17.50;91.40;;;;;;5052550;28;20085;-81
2022/08/30 05:17:17;;;;;;;5.97;2.85;;;17.40;91.60;;;;;;5054992;28;20020;-81
2022/08/30 05:19:44;;;;;;;4.75;2.75;;;17.40;91.80;;;;;;5061772;28;20025;-81
2022/08/30 05:22:13;;;;;;;5.63;2.35;;;17.40;91.80;;;;;;5045722;28;20044;-81
2022/08/30 05:24:39;;;;;;;4.82;2.70;;;17.40;91.80;;;;;;5048627;28;20028;-80
2022/08/30 05:27:04;;;;;;;7.70;3.45;;;17.40;91.60;;;;;;5060771;28;20025;-80
2022/08/30 05:29:31;;;;;;;6.63;3.03;;;17.40;91.70;;;;;;5059258;28;20036;-80
2022/08/30 05:31:57;;;;;;;7.75;3.40;;;17.40;91.80;;;;;;5046561;28;20029;-80
2022/08/30 05:34:22;;;;;;;4.75;3.10;;;17.50;92.00;;;;;;5051379;28;20055;-80
2022/08/30 05:36:48;;;;;;;5.88;3.15;;;17.50;91.90;;;;;;5046028;28;20036;-80
2022/08/30 05:39:14;;;;;;;4.38;2.75;;;17.40;92.00;;;;;;5046269;28;20033;-80
2022/08/30 05:41:40;;;;;;;7.70;2.75;;;17.30;92.40;;;;;;5060546;28;20013;-80
2022/08/30 05:44:08;;;;;;;6.35;2.78;;;17.30;92.50;;;;;;5045771;28;20026;-80
2022/08/30 05:46:35;;;;;;;5.38;3.30;;;17.40;92.30;;;;;;5070688;28;20398;-81
2022/08/30 05:49:03;;;;;;;6.40;3.00;;;17.40;92.30;;;;;;5029687;28;20062;-81
2022/08/30 05:51:31;;;;;;;8.85;3.45;;;17.40;92.50;;;;;;5072436;28;20029;-81
2022/08/30 05:53:58;;;;;;;8.70;3.15;;;17.40;92.50;;;;;;5065056;28;20058;-80
2022/08/30 05:56:29;;;;;;;8.65;3.65;;;17.40;92.30;;;;;;5049279;28;20041;-80
2022/08/30 05:58:55;;;;;;;6.85;3.40;;;17.40;92.40;;;;;;5048250;28;20089;-81
2022/08/30 06:01:24;;;;;;;11.23;3.60;;;17.50;92.20;;;;;;5048441;28;20022;-80
2022/08/30 06:03:50;;;;;;;9.70;3.15;;;17.60;92.10;;;;;;5034237;28;20038;-80
2022/08/30 06:06:16;;;;;;;9.30;3.40;;;17.70;92.20;;;;;;5049234;28;20052;-79
2022/08/30 06:08:44;;;;;;;5.65;2.78;;;17.60;92.20;;;;;;5036150;28;20026;-79
2022/08/30 06:11:11;;;;;;;6.93;3.00;;;17.70;92.00;;;;;;5029251;28;20372;-80
2022/08/30 06:13:38;;;;;;;7.80;3.08;;;17.80;92.00;;;;;;5049891;28;20518;-80
2022/08/30 06:16:04;;;;;;;7.18;3.03;;;17.80;91.70;;;;;;5043149;28;20038;-80
2022/08/30 06:18:30;;;;;;;10.55;2.80;;;17.90;91.90;;;;;;5041229;28;20025;-80
2022/08/30 06:20:57;;;;;;;8.10;4.07;;;17.90;92.00;;;;;;5042793;28;20049;-80
2022/08/30 06:23:23;;;;;;;7.85;3.22;;;18.10;91.90;;;;;;5036002;28;20025;-84
2022/08/30 06:25:49;;;;;;;6.60;3.92;;;18.20;92.10;;;;;;5024338;28;20426;-75
2022/08/30 06:28:15;;;;;;;4.78;3.10;;;18.30;91.40;;;;;;5030371;28;20100;-75
2022/08/30 06:30:41;;;;;;;11.88;4.90;;;18.40;90.90;;;;;;5027414;28;20026;-75
2022/08/30 06:33:08;;;;;;;9.90;3.47;;;18.60;90.60;;;;;;5020510;28;20036;-75
2022/08/30 06:35:35;;;;;;;7.43;3.70;;;18.60;90.50;;;;;;5022694;28;20037;-75
2022/08/30 06:38:01;;;;;;;7.90;3.70;;;18.70;90.30;;;;;;5021595;28;20514;-75
2022/08/30 06:40:27;;;;;;;6.10;3.85;;;18.80;90.20;;;;;;5029245;28;20025;-75
2022/08/30 06:42:53;;;;;;;9.23;4.47;;;18.90;90.50;;;;;;5036793;28;20028;-75
2022/08/30 06:45:20;;;;;;;6.07;3.35;;;19.00;90.20;;;;;;5025991;28;20045;-75
2022/08/30 06:47:47;;;;;;;12.73;5.32;;;19.10;90.20;;;;;;5028977;28;20513;-75
2022/08/30 06:50:14;;;;;;;8.88;4.10;;;19.10;90.10;;;;;;5007561;28;20080;-75
2022/08/30 06:52:42;;;;;;;4.22;3.53;;;19.20;90.00;;;;;;5021198;28;20500;-75
2022/08/30 06:55:10;;;;;;;7.82;3.90;;;19.20;89.70;;;;;;5050176;28;20046;-75
2022/08/30 06:57:37;;;;;;;6.70;4.50;;;19.20;89.70;;;;;;5027262;28;20031;-75
2022/08/30 07:00:07;;;;;;;6.35;3.78;;;19.30;89.70;;;;;;5039603;28;20036;-75
2022/08/30 07:02:33;;;;;;;9.32;4.40;;;19.30;89.80;;;;;;5028683;28;20492;-75
2022/08/30 07:05:01;;;;;;;7.45;4.00;;;19.30;89.70;;;;;;5034076;28;20029;-75
2022/08/30 07:07:26;;;;;;;7.53;3.70;;;19.30;89.40;;;;;;5026109;28;20029;-75
2022/08/30 07:09:52;;;;;;;7.22;4.30;;;19.40;89.20;;;;;;5030671;28;20029;-75
2022/08/30 07:12:18;;;;;;;6.07;4.47;;;19.40;89.10;;;;;;5022373;28;20037;-75
2022/08/30 07:14:44;;;;;;;7.57;4.80;;;19.40;88.90;;;;;;5043096;28;20060;-75
2022/08/30 07:19:55;;;;;;;6.35;4.30;;;19.40;88.80;;;;;;5030931;28;20028;-75
2022/08/30 07:22:21;;;;;;;9.75;4.80;;;19.50;88.80;;;;;;5027941;28;20018;-74
2022/08/30 07:24:47;;;;;;;7.25;4.60;;;19.50;88.70;;;;;;5036075;28;20056;-75
2022/08/30 07:27:13;;;;;;;4.72;3.38;;;19.50;88.80;;;;;;5033081;28;20033;-75
2022/08/30 07:29:39;;;;;;;9.60;4.95;;;19.50;88.70;;;;;;5029184;28;20041;-75
2022/08/30 07:32:05;;;;;;;8.63;4.97;;;19.50;88.60;;;;;;5027679;28;20090;-75
2022/08/30 07:34:31;;;;;;;8.65;4.35;;;19.50;88.50;;;;;;5031289;28;20029;-75
2022/08/30 07:36:57;;;;;;;6.20;3.88;;;19.50;88.50;;;;;;5029060;28;20029;-75
2022/08/30 07:39:23;;;;;;;7.72;4.82;;;19.60;88.40;;;;;;5031366;28;20026;-75
2022/08/30 07:41:49;;;;;;;8.63;4.20;;;19.60;88.40;;;;;;5027150;28;20021;-75
2022/08/30 07:44:15;;;;;;;7.00;4.75;;;19.60;88.30;;;;;;5022671;28;20080;-75
2022/08/30 07:46:41;;;;;;;5.80;4.20;;;19.60;88.20;;;;;;5027866;28;20521;-75
2022/08/30 07:49:08;;;;;;;9.30;4.43;;;19.60;88.20;;;;;;5039291;28;20053;-75
2022/08/30 07:51:34;;;;;;;7.53;4.93;;;19.60;88.20;;;;;;5021118;28;20082;-75
2022/08/30 07:54:00;;;;;;;5.38;4.30;;;19.60;88.20;;;;;;5045137;28;20392;-75
2022/08/30 07:56:26;;;;;;;5.72;4.25;;;19.60;88.10;;;;;;5035451;28;20032;-75
2022/08/30 07:58:52;;;;;;;5.45;4.13;;;19.60;88.10;;;;;;5029061;28;20493;-75
2022/08/30 08:01:19;;;;;;;5.10;3.80;;;19.60;88.10;;;;;;5040444;28;20056;-75
2022/08/30 08:03:46;;;;;;;6.80;3.92;;;19.60;88.00;;;;;;5024842;28;20071;-75
2022/08/30 08:06:14;;;;;;;6.22;3.95;;;19.60;88.00;;;;;;5029730;28;20036;-75
2022/08/30 08:08:40;;;;;;;8.38;4.25;;;19.70;88.10;;;;;;5031066;28;20379;-75
2022/08/30 08:11:13;;;;;;;6.07;3.95;;;19.70;88.00;;;;;;5034158;28;20451;-75
2022/08/30 08:13:40;;;;;;;6.27;4.40;;;19.70;88.00;;;;;;5027947;28;20021;-75
2022/08/30 08:16:06;;;;;;;5.10;3.83;;;19.70;88.00;;;;;;5027908;28;20297;-75
2022/08/30 08:18:32;;;;;;;7.45;4.70;;;19.70;88.00;;;;;;5026548;28;20475;-75
2022/08/30 08:20:59;;;;;;;5.35;3.60;;;19.70;88.00;;;;;;5027380;28;20021;-75
2022/08/30 08:23:25;;;;;;;5.72;4.05;;;19.70;88.50;;;;;;5032722;28;20033;-74
2022/08/30 08:25:51;;;;;;;6.88;4.45;;;19.70;87.90;;;;;;5027341;28;20040;-74
2022/08/30 08:28:17;;;;;;;7.38;4.32;;;19.70;87.90;;;;;;5033954;28;20057;-75
2022/08/30 08:30:44;;;;;;;9.07;3.88;;;19.70;88.00;;;;;;5024067;28;20040;-75
2022/08/30 08:33:11;;;;;;;6.03;4.13;;;19.70;87.90;;;;;;5028156;28;20038;-75
2022/08/30 08:35:37;;;;;;;7.40;4.53;;;19.80;88.10;;;;;;5022714;28;20033;-75
2022/08/30 08:38:03;;;;;;;5.40;3.92;;;19.80;88.00;;;;;;5037533;28;20032;-75
2022/08/30 08:40:37;;;;;;;6.95;4.85;;;19.80;88.00;;;;;;5031810;28;20042;-75
2022/08/30 08:43:15;;;;;;;6.00;4.25;;;19.80;88.00;;;;;;5022388;28;20025;-76
2022/08/30 08:45:49;;;;;;;7.88;4.07;;;19.80;88.10;;;;;;5038006;28;20041;-75
2022/08/30 08:48:38;;;;;;;7.70;4.80;;;19.80;88.00;;;;;;5026741;28;20030;-75
2022/08/30 08:54:03;;;;;;;7.95;5.07;;;19.80;88.00;;;;;;5034822;28;20454;-75
2022/08/30 08:56:29;;;;;;;5.93;4.38;;;19.80;88.00;;;;;;5031607;28;20029;-75
2022/08/30 08:58:56;;;;;;;8.73;5.32;;;19.80;88.00;;;;;;5025771;28;20029;-75
2022/08/30 09:01:26;;;;;;;10.93;4.97;;;19.80;88.00;;;;;;5026293;28;20134;-75
2022/08/30 09:03:52;;;;;;;7.80;4.60;;;19.80;88.00;;;;;;5034783;28;20052;-76
2022/08/30 09:06:32;;;;;;;5.40;4.60;;;19.80;87.90;;;;;;5033566;28;20037;-74
2022/08/30 09:08:58;;;;;;;8.18;5.03;;;19.80;87.90;;;;;;5037978;28;20894;-75
2022/08/30 09:11:29;;;;;;;8.15;5.15;;;19.80;88.00;;;;;;5025941;28;20072;-75
2022/08/30 09:13:55;;;;;;;6.93;5.40;;;19.80;87.90;;;;;;5028501;28;20052;-75
2022/08/30 09:16:44;;;;;;;7.85;5.13;;;19.90;87.90;;;;;;5036600;28;20025;-75
2022/08/30 09:19:10;;;;;;;8.50;5.22;;;19.90;88.00;;;;;;5038750;28;20470;-75
2022/08/30 09:21:36;;;;;;;6.45;4.80;;;19.90;87.80;;;;;;5035110;28;20021;-75
2022/08/30 09:24:04;;;;;;;7.07;5.13;;;19.80;87.70;;;;;;5032279;28;20032;-75
2022/08/30 09:26:33;;;;;;;8.77;4.40;;;19.90;87.80;;;;;;5040793;28;20120;-75
2022/08/30 09:28:59;;;;;;;5.18;4.38;;;19.90;87.80;;;;;;5033072;28;20386;-75
2022/08/30 09:31:31;;;;;;;5.75;4.88;;;19.90;87.70;;;;;;5027852;28;20017;-75
2022/08/30 09:34:08;;;;;;;5.70;3.38;;;19.90;87.70;;;;;;5035940;28;20022;-79
2022/08/30 09:36:50;;;;;;;8.02;2.80;;;20.30;84.00;;;;;;5036051;28;20025;-79
2022/08/30 09:39:18;;;;;;;6.85;3.08;;;21.00;79.30;;;;;;5033502;28;20029;-79
2022/08/30 09:41:47;;;;;;;5.50;2.65;;;21.50;77.80;;;;;;5027196;28;20029;-79
2022/08/30 09:44:21;;;;;;;5.97;2.58;;;21.90;77.00;;;;;;5030036;28;20041;-79
2022/08/30 09:46:50;;;;;;;4.60;2.65;;;22.20;75.90;;;;;;5027452;28;20116;-79
2022/08/30 09:49:36;;;;;;;8.52;2.65;;;22.50;73.80;;;;;;5047991;28;20021;-78
2022/08/30 09:52:02;;;;;;;5.78;2.42;;;22.80;74.80;;;;;;5031946;28;20029;-78
2022/08/30 09:54:41;;;;;;;6.82;3.28;;;23.00;74.00;;;;;;5021721;28;20036;-78
2022/08/30 09:57:15;;;;;;;6.63;2.40;;;23.10;73.60;;;;;;5041532;28;20030;-79
2022/08/30 10:00:05;;;;;;;7.28;3.00;;;23.30;74.00;;;;;;5051506;28;20531;-79
2022/08/30 10:02:56;;;;;;;7.43;3.05;;;23.50;73.40;;;;;;5032024;28;20033;-79
2022/08/30 10:06:17;;;;;;;6.10;2.58;;;23.60;73.70;;;;;;5035052;28;20057;-79
2022/08/30 10:09:06;;;;;;;4.13;2.58;;;23.70;73.00;;;;;;4997695;28;20030;-79
2022/08/30 10:11:51;;;;;;;4.43;2.30;;;23.80;73.20;;;;;;5033841;28;20033;-78
2022/08/30 10:14:29;;;;;;;5.32;2.60;;;23.80;73.10;;;;;;5034108;28;20040;-79
2022/08/30 10:17:06;;;;;;;9.40;2.70;;;23.80;72.00;;;;;;5030607;28;20033;-80
2022/08/30 10:19:41;;;;;;;5.32;2.60;;;23.80;73.40;;;;;;5031429;28;20382;-79
2022/08/30 10:22:14;;;;;;;12.75;2.45;;;23.90;73.40;;;;;;5031721;28;20047;-80
2022/08/30 10:24:49;;;;;;;6.55;2.75;;;23.80;73.70;;;;;;5029263;28;20048;-78
2022/08/30 10:27:41;;;;;;;4.28;2.88;;;23.80;72.40;;;;;;5029051;28;20029;-78
2022/08/30 10:30:15;;;;;;;7.70;3.10;;;23.70;71.40;;;;;;5040306;28;20128;-78
2022/08/30 10:32:43;;;;;;;6.55;2.83;;;23.70;71.30;;;;;;5025118;28;20366;-78
2022/08/30 10:35:18;;;;;;;4.55;2.28;;;23.70;72.90;;;;;;5029590;28;20056;-79
2022/08/30 10:37:50;;;;;;;7.18;2.83;;;23.80;72.20;;;;;;5043842;28;20025;-79
2022/08/30 10:43:30;;;;;;;5.25;2.55;;;24.10;73.10;;;;;;5029658;28;20079;-79
2022/08/30 10:46:01;;;;;;;9.52;2.90;;;24.20;72.50;;;;;;5030048;28;20036;-79
2022/08/30 10:48:42;;;;;;;4.05;2.35;;;24.20;70.70;;;;;;5029405;28;20029;-79
2022/08/30 10:51:40;;;;;;;5.57;2.88;;;24.20;71.10;;;;;;5029667;28;20090;-79
2022/08/30 10:54:31;;;;;;;5.07;2.42;;;24.20;71.60;;;;;;5027917;28;20040;-79
2022/08/30 10:56:58;;;;;;;8.55;2.97;;;24.20;70.70;;;;;;5040519;28;20421;-78
2022/08/30 10:59:24;;;;;;;5.60;2.53;;;24.20;72.70;;;;;;5022975;28;20152;-79
2022/08/30 11:02:16;;;;;;;8.98;2.50;;;24.20;71.30;;;;;;5031156;28;20067;-78
2022/08/30 11:05:23;;;;;;;6.45;2.70;;;24.20;71.40;;;;;;5028481;28;20028;-78
2022/08/30 11:08:18;;;;;;;9.57;3.30;;;24.20;72.50;;;;;;5024544;28;20116;-78
2022/08/30 11:10:56;;;;;;;9.27;2.85;;;24.20;73.20;;;;;;5019394;28;20034;-78
2022/08/30 11:13:29;;;;;;;6.45;2.30;;;24.20;72.20;;;;;;5027872;28;20028;-78
2022/08/30 11:16:14;;;;;;;5.82;3.03;;;24.10;72.40;;;;;;5028232;28;20033;-78
2022/08/30 11:18:46;;;;;;;4.47;2.72;;;24.10;72.70;;;;;;5046645;28;20049;-79
2022/08/30 11:21:24;;;;;;;9.48;2.70;;;24.20;72.50;;;;;;5029199;28;20032;-78
2022/08/30 11:24:02;;;;;;;4.72;2.28;;;24.20;72.40;;;;;;5022425;28;20100;-79
2022/08/30 11:26:49;;;;;;;6.10;2.88;;;24.10;72.10;;;;;;5039767;28;20038;-79
2022/08/30 11:29:35;;;;;;;8.82;2.30;;;24.20;72.20;;;;;;5023155;28;20018;-78
2022/08/30 11:32:16;;;;;;;7.25;2.55;;;24.20;71.50;;;;;;5025982;28;20117;-78
2022/08/30 11:34:47;;;;;;;4.72;2.42;;;24.10;71.20;;;;;;5027345;28;20026;-78
2022/08/30 11:37:43;;;;;;;5.78;2.50;;;24.20;72.90;;;;;;5035191;28;20029;-79
2022/08/30 11:40:18;;;;;;;5.43;2.42;;;24.20;71.70;;;;;;5025792;28;20037;-78
2022/08/30 11:42:49;;;;;;;9.35;2.90;;;24.20;72.40;;;;;;5034547;28;20117;-79
2022/08/30 11:45:24;;;;;;;7.97;3.05;;;24.10;72.00;;;;;;5031347;28;20048;-78
2022/08/30 11:47:52;;;;;;;6.70;2.55;;;24.20;72.20;;;;;;5039386;28;20128;-79
2022/08/30 11:50:42;;;;;;;4.50;2.78;;;24.30;72.00;;;;;;5047333;28;20032;-79
2022/08/30 11:53:13;;;;;;;3.92;2.50;;;24.40;71.80;;;;;;5035012;28;20025;-78
2022/08/30 11:55:53;;;;;;;6.78;2.75;;;24.40;71.20;;;;;;5036826;28;20031;-80
2022/08/30 11:58:30;;;;;;;7.70;2.80;;;24.50;69.90;;;;;;5025694;28;20119;-80
2022/08/30 12:01:21;;;;;;;5.03;2.35;;;24.50;71.50;;;;;;5041162;28;20041;-79
2022/08/30 12:04:06;;;;;;;5.65;2.75;;;24.50;70.10;;;;;;5034284;28;20025;-80
2022/08/30 12:06:38;;;;;;;7.43;3.17;;;24.50;71.40;;;;;;5030605;28;20120;-80
2022/08/30 12:09:05;;;;;;;7.78;2.15;;;24.60;71.80;;;;;;5031415;28;20034;-80
2022/08/30 12:11:30;;;;;;;5.13;2.95;;;24.60;70.40;;;;;;5030256;28;20041;-80
2022/08/30 12:13:56;;;;;;;8.00;2.67;;;24.60;70.60;;;;;;5030282;28;20037;-80
2022/08/30 12:19:31;;;;;;;6.57;2.60;;;24.70;71.20;;;;;;5033227;28;20028;-81
2022/08/30 12:22:00;;;;;;;6.43;2.38;;;24.80;71.40;;;;;;5027160;28;20088;-79
2022/08/30 12:24:35;;;;;;;8.93;3.00;;;24.80;71.40;;;;;;5027085;28;20037;-79
2022/08/30 12:27:19;;;;;;;5.43;2.88;;;24.90;71.60;;;;;;5021779;28;20224;-80
2022/08/30 12:29:58;;;;;;;11.68;2.50;;;24.90;70.90;;;;;;5024780;28;20025;-79
2022/08/30 12:32:26;;;;;;;6.22;2.20;;;24.80;70.60;;;;;;5024024;28;20053;-80
2022/08/30 12:34:55;;;;;;;6.78;2.70;;;24.90;71.50;;;;;;5030210;28;20025;-84
2022/08/30 12:37:28;;;;;;;11.15;3.10;;;24.80;69.40;;;;;;5022276;28;20437;-79
2022/08/30 12:40:08;;;;;;;5.78;2.95;;;24.80;70.50;;;;;;5018345;28;20044;-80
2022/08/30 12:42:37;;;;;;;8.63;3.38;;;24.80;70.40;;;;;;5022631;28;20560;-80
2022/08/30 12:45:12;;;;;;;9.23;3.35;;;24.80;70.90;;;;;;5027284;28;20034;-79
2022/08/30 12:47:49;;;;;;;11.10;3.17;;;24.90;70.40;;;;;;5029333;28;20029;-80
2022/08/30 12:50:22;;;;;;;6.28;2.35;;;24.90;70.20;;;;;;5029515;28;20088;-79
2022/08/30 12:52:56;;;;;;;;;;;25.00;70.30;;;;;;5032789;28;20032;-80
2022/08/30 12:55:32;;;;;;;4.45;2.70;;;25.00;71.50;;;;;;5048471;28;20648;-80
2022/08/30 12:58:10;;;;;;;6.22;3.05;;;25.00;70.00;;;;;;5031334;28;20031;-80
2022/08/30 13:00:39;;;;;;;6.15;2.80;;;25.00;70.10;;;;;;5039813;28;20013;-80
2022/08/30 13:03:28;;;;;;;5.43;2.50;;;25.00;69.70;;;;;;5030859;28;20037;-80
2022/08/30 13:05:56;;;;;;;5.30;2.40;;;25.00;70.20;;;;;;5032789;28;20030;-80
2022/08/30 13:08:24;;;;;;;7.30;3.25;;;25.10;69.90;;;;;;5025380;28;20033;-80
2022/08/30 13:11:00;;;;;;;5.72;2.83;;;25.10;69.20;;;;;;5042043;28;20041;-81
2022/08/30 13:13:30;;;;;;;6.95;3.00;;;25.20;70.90;;;;;;5044260;28;20180;-80
2022/08/30 13:16:04;;;;;;;7.68;2.95;;;25.20;70.20;;;;;;5028638;28;20390;-80